M. Luther — WDC7372 — position and weather

sailwx.info

Track history (hours):
 
Tides and Currents Weather Stations Pressure Air Temp Water Temp Dewpoint Dewpoint Depression Visibility Wind Speed Wind Dir Waves Ship Positions

M. Luther

More information available from US FCC via Universal Licensing System and Coast Guard Vessel Documentation Center.

Last reported at 2014-Aug-21 09:30 UTC. Time now 2014-Aug-21 10:14 UTC.
Position N 47°34' W 122°22'.

Length 28 m; draft 4.1 m.

Type: Tug. MMSI: 367070410.

Date/timePositionNaut miles runAvg speedWind from/ knotsBaromVisibWave heightAir tempDewpointWater temp
2014-Aug-21 09:30N 47°34' W 122°22'0 0.0
2014-Aug-21 08:33N 47°34' W 122°22'0 0.0
2014-Aug-21 07:33N 47°34' W 122°22'0 0.0
2014-Aug-21 06:33N 47°34' W 122°22'0 0.0
2014-Aug-21 05:33N 47°34' W 122°22'0 0.0
2014-Aug-21 04:30N 47°34' W 122°22'0 0.0
2014-Aug-21 03:27N 47°34' W 122°22'0 0.0
2014-Aug-21 02:24N 47°34' W 122°22'0 0.0
2014-Aug-21 01:33N 47°34' W 122°22'0 0.0
2014-Aug-21 00:33N 47°34' W 122°22'0 0.0
2014-Aug-20 23:33N 47°34' W 122°22'0 0.0
2014-Aug-20 22:30N 47°34' W 122°22'0 0.0
2014-Aug-20 21:27N 47°34' W 122°22'0 0.0
2014-Aug-20 20:24N 47°34' W 122°22'0 0.0
2014-Aug-20 19:30N 47°34' W 122°22'0 0.0
2014-Aug-20 18:33N 47°34' W 122°22'1 1.0
2014-Aug-20 17:19N 47°33' W 122°21'0 0.0
2014-Aug-19 01:33N 47°33' W 122°21'0 0.0
2014-Aug-19 00:33N 47°33' W 122°21'0 0.0
2014-Aug-18 23:30N 47°33' W 122°21'0 0.0
2014-Aug-18 22:27N 47°33' W 122°21'0 0.0
2014-Aug-18 17:15N 47°33' W 122°21'0 0.0
2014-Aug-18 15:27N 47°33' W 122°21'0 0.0
2014-Aug-18 11:33N 47°33' W 122°21'0 0.0
2014-Aug-18 04:30N 47°33' W 122°21'0 0.0
2014-Aug-18 03:17N 47°33' W 122°21'0 0.0
2014-Aug-18 02:32N 47°33' W 122°21'0 0.0
2014-Aug-18 01:32N 47°33' W 122°21'0 0.0
2014-Aug-17 16:11N 47°33' W 122°21'1 2.0
2014-Aug-17 15:31N 47°35' W 122°22'5 5.3
2014-Aug-17 14:34N 47°38' W 122°27'7 6.9
2014-Aug-17 13:34N 47°45' W 122°27'7 7.3
2014-Aug-17 12:33N 47°52' W 122°29'6 6.2
2014-Aug-17 11:32N 47°57' W 122°35'6 5.1
2014-Aug-17 10:23N 48°02' W 122°39'4 3.8
2014-Aug-17 09:15N 48°07' W 122°41'2 3.0
2014-Aug-17 08:31N 48°08' W 122°43'4 3.6
2014-Aug-17 07:23N 48°11' W 122°47'14 7.0
2014-Aug-17 05:25N 48°25' W 122°45'6 6.7
2014-Aug-17 04:33N 48°31' W 122°45'6 6.0
2014-Aug-17 03:33N 48°36' W 122°45'6 5.8
2014-Aug-17 02:33N 48°42' W 122°45'7 6.6
2014-Aug-17 01:33N 48°47' W 122°52'7 7.0
2014-Aug-17 00:33N 48°51' W 123°01'7 7.1
2014-Aug-16 23:33N 48°55' W 123°09'8 7.5
2014-Aug-16 22:33N 49°00' W 123°18'6 6.0
2014-Aug-16 21:34N 49°06' W 123°18'5 4.8
2014-Aug-16 20:33N 49°07' W 123°11'5 5.3
2014-Aug-16 19:34N 49°08' W 123°03'2 2.1
2014-Aug-16 18:31N 49°09' W 123°00'0 0.0
2014-Aug-16 17:31N 49°09' W 123°00'0 0.0
2014-Aug-16 16:31N 49°09' W 123°00'0 0.0
2014-Aug-16 15:31N 49°09' W 123°00'0 0.0
2014-Aug-16 14:31N 49°09' W 123°00'0 0.0
2014-Aug-16 13:31N 49°09' W 123°00'0 0.0
2014-Aug-16 12:28N 49°09' W 123°00'0 0.0
2014-Aug-16 11:31N 49°09' W 123°00'0 0.0
2014-Aug-16 10:25N 49°09' W 123°00'0 0.0
2014-Aug-16 09:31N 49°09' W 123°00'0 0.0
2014-Aug-16 08:31N 49°09' W 123°00'0 0.0
2014-Aug-16 07:31N 49°09' W 123°00'0 0.0
2014-Aug-16 06:31N 49°09' W 123°00'0 0.0
2014-Aug-16 05:31N 49°09' W 123°00'0 0.0
2014-Aug-16 04:31N 49°09' W 123°00'0 0.0
2014-Aug-16 03:31N 49°09' W 123°00'0 0.0
2014-Aug-16 02:31N 49°09' W 123°00'0 0.0
2014-Aug-16 01:31N 49°09' W 123°00'0 0.0
2014-Aug-16 00:31N 49°09' W 123°00'0 0.0
2014-Aug-15 23:31N 49°09' W 123°00'0 0.0
2014-Aug-15 22:31N 49°09' W 123°00'0 0.0
2014-Aug-15 21:31N 49°09' W 123°00'0 0.0
2014-Aug-15 20:31N 49°09' W 123°00'0 0.0
2014-Aug-15 19:28N 49°09' W 123°00'0 0.0
2014-Aug-15 18:31N 49°09' W 123°00'0 0.0
2014-Aug-15 17:31N 49°09' W 123°00'0 0.0
2014-Aug-15 16:31N 49°09' W 123°00'0 0.0
2014-Aug-15 15:31N 49°09' W 123°00'0 0.0
2014-Aug-15 14:28N 49°09' W 123°00'0 0.0
2014-Aug-15 13:31N 49°09' W 123°00'0 0.0
2014-Aug-15 12:31N 49°09' W 123°00'0 0.0
2014-Aug-15 11:31N 49°09' W 123°00'0 0.0
2014-Aug-15 10:31N 49°09' W 123°00'0 0.0
2014-Aug-15 09:31N 49°09' W 123°00'0 0.0
2014-Aug-15 08:34N 49°09' W 123°00'0 0.0
2014-Aug-15 07:34N 49°09' W 123°00'0 0.0
2014-Aug-15 06:33N 49°09' W 123°00'0 0.0
2014-Aug-15 05:30N 49°09' W 123°00'0 0.0
2014-Aug-15 04:30N 49°09' W 123°00'0 0.0
2014-Aug-15 03:30N 49°09' W 123°00'0 0.0
2014-Aug-15 02:30N 49°09' W 123°00'0 0.0
2014-Aug-15 01:33N 49°09' W 123°00'0 0.0
2014-Aug-15 00:33N 49°09' W 123°00'0 0.0
2014-Aug-14 23:33N 49°09' W 123°00'0 0.0
2014-Aug-14 22:30N 49°09' W 123°00'0 0.0
2014-Aug-14 21:30N 49°09' W 123°00'0 0.0
2014-Aug-14 20:30N 49°09' W 123°00'0 0.0
2014-Aug-14 19:30N 49°09' W 123°00'0 0.0
2014-Aug-14 18:33N 49°09' W 123°00'0 0.0
2014-Aug-14 17:30N 49°09' W 123°00'0 0.0
2014-Aug-14 16:30N 49°09' W 123°00'0 0.0
2014-Aug-14 15:24N 49°09' W 123°00'0 0.0
2014-Aug-14 14:30N 49°09' W 123°00'0 0.0
2014-Aug-14 13:30N 49°09' W 123°00'0 0.0
2014-Aug-14 12:24N 49°09' W 123°00'0 0.0
2014-Aug-14 11:30N 49°09' W 123°00'0 0.0
2014-Aug-14 10:30N 49°09' W 123°00'0 0.0
2014-Aug-14 09:30N 49°09' W 123°00'0 0.0
2014-Aug-14 08:30N 49°09' W 123°00'0 0.0
2014-Aug-14 07:33N 49°09' W 123°00'0 0.0
2014-Aug-14 06:33N 49°09' W 123°00'0 0.0
2014-Aug-14 05:33N 49°09' W 123°00'0 0.0
2014-Aug-14 04:33N 49°09' W 123°00'0 0.0
2014-Aug-14 03:33N 49°09' W 123°00'0 0.0
2014-Aug-14 02:33N 49°09' W 123°00'0 0.0
2014-Aug-14 01:33N 49°09' W 123°00'0 0.0
2014-Aug-14 00:30N 49°09' W 123°00'0 0.0
2014-Aug-13 23:30N 49°09' W 123°00'0 0.0
2014-Aug-13 22:30N 49°09' W 123°00'0 0.0
2014-Aug-13 21:33N 49°09' W 123°00'0 0.0
2014-Aug-13 20:30N 49°09' W 123°00'0 0.0
2014-Aug-13 19:29N 49°09' W 123°00'0 0.0
2014-Aug-13 18:27N 49°09' W 123°00'0 0.0
2014-Aug-13 17:32N 49°09' W 123°00'0 0.0
2014-Aug-13 16:32N 49°09' W 123°00'0 0.0
2014-Aug-13 15:22N 49°09' W 123°00'0 0.0
2014-Aug-13 14:31N 49°09' W 123°00'0 0.0
2014-Aug-13 13:31N 49°09' W 123°00'0 0.0
2014-Aug-13 12:31N 49°09' W 123°00'0 0.0
2014-Aug-13 11:31N 49°09' W 123°00'0 0.0
2014-Aug-13 10:22N 49°09' W 123°00'0 0.0
2014-Aug-13 09:29N 49°09' W 123°00'0 0.0
2014-Aug-13 08:28N 49°09' W 123°00'0 0.0
2014-Aug-13 07:22N 49°09' W 123°00'0 0.0
2014-Aug-13 06:31N 49°09' W 123°00'0 0.0
2014-Aug-13 05:31N 49°09' W 123°00'0 0.0
2014-Aug-13 04:31N 49°09' W 123°00'0 0.0
2014-Aug-13 03:28N 49°09' W 123°00'0 0.0
2014-Aug-13 02:31N 49°09' W 123°00'0 0.0
2014-Aug-13 01:28N 49°09' W 123°00'0 0.0
2014-Aug-13 00:31N 49°09' W 123°00'0 0.0
2014-Aug-12 23:28N 49°09' W 123°00'0 0.0
2014-Aug-12 22:28N 49°09' W 123°00'0 0.0
2014-Aug-12 21:10N 49°09' W 123°00'0 0.0
2014-Aug-12 20:28N 49°09' W 123°00'0 0.0
2014-Aug-12 19:31N 49°09' W 123°00'0 0.0
2014-Aug-12 18:28N 49°09' W 123°00'0 0.0
2014-Aug-12 17:28N 49°09' W 123°00'0 0.0
2014-Aug-12 16:34N 49°09' W 123°00'0 0.0
2014-Aug-12 15:33N 49°09' W 123°00'0 0.0
2014-Aug-12 14:33N 49°09' W 123°00'0 0.0
2014-Aug-12 13:24N 49°09' W 123°00'0 0.0
2014-Aug-12 12:33N 49°09' W 123°00'0 0.0
2014-Aug-12 11:33N 49°09' W 123°00'0 0.0
2014-Aug-12 10:30N 49°09' W 123°00'0 0.0
2014-Aug-12 09:33N 49°09' W 123°00'0 0.0
2014-Aug-12 08:33N 49°09' W 123°00'0 0.0
2014-Aug-12 07:30N 49°09' W 123°00'0 0.0
2014-Aug-12 06:33N 49°09' W 123°00'0 0.0
2014-Aug-12 05:33N 49°09' W 123°00'0 0.0
2014-Aug-12 04:33N 49°09' W 123°00'0 0.0
2014-Aug-12 03:27N 49°09' W 123°00'0 0.0
2014-Aug-12 02:33N 49°09' W 123°00'0 0.0
2014-Aug-12 01:33N 49°09' W 123°00'0 0.0
2014-Aug-12 00:21N 49°09' W 123°00'0 0.0
2014-Aug-11 23:30N 49°09' W 123°00'0 0.0
2014-Aug-11 21:27N 49°09' W 123°00'0 0.0
2014-Aug-11 20:33N 49°09' W 123°00'0 0.0
2014-Aug-11 19:27N 49°09' W 123°00'0 0.0
2014-Aug-11 18:09N 49°09' W 123°00'0 0.0
2014-Aug-11 17:33N 49°09' W 123°00'0 0.0
2014-Aug-11 16:33N 49°09' W 123°00'0 0.0
2014-Aug-11 15:33N 49°09' W 123°00'0 0.0
2014-Aug-11 14:33N 49°09' W 123°00'0 0.0
2014-Aug-11 13:33N 49°09' W 123°00'2 2.1
2014-Aug-11 12:33N 49°08' W 123°03'5 4.8
2014-Aug-11 11:33N 49°07' W 123°10'4 4.1
2014-Aug-11 10:33N 49°07' W 123°16'4 3.7
2014-Aug-11 09:33N 49°04' W 123°18'  
Track history (hours):
 
Tides and Currents Weather Stations Pressure Air Temp Water Temp Dewpoint Dewpoint Depression Visibility Wind Speed Wind Dir Waves Ship Positions

M. Luther

More information available from US FCC via Universal Licensing System and Coast Guard Vessel Documentation Center.

Last reported at 2014-Aug-21 09:30 UTC. Time now 2014-Aug-21 10:14 UTC.
Position N 47°34' W 122°22'.

Length 28 m; draft 4.1 m.

Type: Tug. MMSI: 367070410.

Date/timePositionNaut miles runAvg speedWind from/ knotsBaromVisibWave heightAir tempDewpointWater temp
2014-Aug-21 09:30N 47°34' W 122°22'0 0.0
2014-Aug-21 08:33N 47°34' W 122°22'0 0.0
2014-Aug-21 07:33N 47°34' W 122°22'0 0.0
2014-Aug-21 06:33N 47°34' W 122°22'0 0.0
2014-Aug-21 05:33N 47°34' W 122°22'0 0.0
2014-Aug-21 04:30N 47°34' W 122°22'0 0.0
2014-Aug-21 03:27N 47°34' W 122°22'0 0.0
2014-Aug-21 02:24N 47°34' W 122°22'0 0.0
2014-Aug-21 01:33N 47°34' W 122°22'0 0.0
2014-Aug-21 00:33N 47°34' W 122°22'0 0.0
2014-Aug-20 23:33N 47°34' W 122°22'0 0.0
2014-Aug-20 22:30N 47°34' W 122°22'0 0.0
2014-Aug-20 21:27N 47°34' W 122°22'0 0.0
2014-Aug-20 20:24N 47°34' W 122°22'0 0.0
2014-Aug-20 19:30N 47°34' W 122°22'0 0.0
2014-Aug-20 18:33N 47°34' W 122°22'1 1.0
2014-Aug-20 17:19N 47°33' W 122°21'0 0.0
2014-Aug-19 01:33N 47°33' W 122°21'0 0.0
2014-Aug-19 00:33N 47°33' W 122°21'0 0.0
2014-Aug-18 23:30N 47°33' W 122°21'0 0.0
2014-Aug-18 22:27N 47°33' W 122°21'0 0.0
2014-Aug-18 17:15N 47°33' W 122°21'0 0.0
2014-Aug-18 15:27N 47°33' W 122°21'0 0.0
2014-Aug-18 11:33N 47°33' W 122°21'0 0.0
2014-Aug-18 04:30N 47°33' W 122°21'0 0.0
2014-Aug-18 03:17N 47°33' W 122°21'0 0.0
2014-Aug-18 02:32N 47°33' W 122°21'0 0.0
2014-Aug-18 01:32N 47°33' W 122°21'0 0.0
2014-Aug-17 16:11N 47°33' W 122°21'1 2.0
2014-Aug-17 15:31N 47°35' W 122°22'5 5.3
2014-Aug-17 14:34N 47°38' W 122°27'7 6.9
2014-Aug-17 13:34N 47°45' W 122°27'7 7.3
2014-Aug-17 12:33N 47°52' W 122°29'6 6.2
2014-Aug-17 11:32N 47°57' W 122°35'6 5.1
2014-Aug-17 10:23N 48°02' W 122°39'4 3.8
2014-Aug-17 09:15N 48°07' W 122°41'2 3.0
2014-Aug-17 08:31N 48°08' W 122°43'4 3.6
2014-Aug-17 07:23N 48°11' W 122°47'14 7.0
2014-Aug-17 05:25N 48°25' W 122°45'6 6.7
2014-Aug-17 04:33N 48°31' W 122°45'6 6.0
2014-Aug-17 03:33N 48°36' W 122°45'6 5.8
2014-Aug-17 02:33N 48°42' W 122°45'7 6.6
2014-Aug-17 01:33N 48°47' W 122°52'7 7.0
2014-Aug-17 00:33N 48°51' W 123°01'7 7.1
2014-Aug-16 23:33N 48°55' W 123°09'8 7.5
2014-Aug-16 22:33N 49°00' W 123°18'6 6.0
2014-Aug-16 21:34N 49°06' W 123°18'5 4.8
2014-Aug-16 20:33N 49°07' W 123°11'5 5.3
2014-Aug-16 19:34N 49°08' W 123°03'2 2.1
2014-Aug-16 18:31N 49°09' W 123°00'0 0.0
2014-Aug-16 17:31N 49°09' W 123°00'0 0.0
2014-Aug-16 16:31N 49°09' W 123°00'0 0.0
2014-Aug-16 15:31N 49°09' W 123°00'0 0.0
2014-Aug-16 14:31N 49°09' W 123°00'0 0.0
2014-Aug-16 13:31N 49°09' W 123°00'0 0.0
2014-Aug-16 12:28N 49°09' W 123°00'0 0.0
2014-Aug-16 11:31N 49°09' W 123°00'0 0.0
2014-Aug-16 10:25N 49°09' W 123°00'0 0.0
2014-Aug-16 09:31N 49°09' W 123°00'0 0.0
2014-Aug-16 08:31N 49°09' W 123°00'0 0.0
2014-Aug-16 07:31N 49°09' W 123°00'0 0.0
2014-Aug-16 06:31N 49°09' W 123°00'0 0.0
2014-Aug-16 05:31N 49°09' W 123°00'0 0.0
2014-Aug-16 04:31N 49°09' W 123°00'0 0.0
2014-Aug-16 03:31N 49°09' W 123°00'0 0.0
2014-Aug-16 02:31N 49°09' W 123°00'0 0.0
2014-Aug-16 01:31N 49°09' W 123°00'0 0.0
2014-Aug-16 00:31N 49°09' W 123°00'0 0.0
2014-Aug-15 23:31N 49°09' W 123°00'0 0.0
2014-Aug-15 22:31N 49°09' W 123°00'0 0.0
2014-Aug-15 21:31N 49°09' W 123°00'0 0.0
2014-Aug-15 20:31N 49°09' W 123°00'0 0.0
2014-Aug-15 19:28N 49°09' W 123°00'0 0.0
2014-Aug-15 18:31N 49°09' W 123°00'0 0.0
2014-Aug-15 17:31N 49°09' W 123°00'0 0.0
2014-Aug-15 16:31N 49°09' W 123°00'0 0.0
2014-Aug-15 15:31N 49°09' W 123°00'0 0.0
2014-Aug-15 14:28N 49°09' W 123°00'0 0.0
2014-Aug-15 13:31N 49°09' W 123°00'0 0.0
2014-Aug-15 12:31N 49°09' W 123°00'0 0.0
2014-Aug-15 11:31N 49°09' W 123°00'0 0.0
2014-Aug-15 10:31N 49°09' W 123°00'0 0.0
2014-Aug-15 09:31N 49°09' W 123°00'0 0.0
2014-Aug-15 08:34N 49°09' W 123°00'0 0.0
2014-Aug-15 07:34N 49°09' W 123°00'0 0.0
2014-Aug-15 06:33N 49°09' W 123°00'0 0.0
2014-Aug-15 05:30N 49°09' W 123°00'0 0.0
2014-Aug-15 04:30N 49°09' W 123°00'0 0.0
2014-Aug-15 03:30N 49°09' W 123°00'0 0.0
2014-Aug-15 02:30N 49°09' W 123°00'0 0.0
2014-Aug-15 01:33N 49°09' W 123°00'0 0.0
2014-Aug-15 00:33N 49°09' W 123°00'0 0.0
2014-Aug-14 23:33N 49°09' W 123°00'0 0.0
2014-Aug-14 22:30N 49°09' W 123°00'0 0.0
2014-Aug-14 21:30N 49°09' W 123°00'0 0.0
2014-Aug-14 20:30N 49°09' W 123°00'0 0.0
2014-Aug-14 19:30N 49°09' W 123°00'0 0.0
2014-Aug-14 18:33N 49°09' W 123°00'0 0.0
2014-Aug-14 17:30N 49°09' W 123°00'0 0.0
2014-Aug-14 16:30N 49°09' W 123°00'0 0.0
2014-Aug-14 15:24N 49°09' W 123°00'0 0.0
2014-Aug-14 14:30N 49°09' W 123°00'0 0.0
2014-Aug-14 13:30N 49°09' W 123°00'0 0.0
2014-Aug-14 12:24N 49°09' W 123°00'0 0.0
2014-Aug-14 11:30N 49°09' W 123°00'0 0.0
2014-Aug-14 10:30N 49°09' W 123°00'0 0.0
2014-Aug-14 09:30N 49°09' W 123°00'0 0.0
2014-Aug-14 08:30N 49°09' W 123°00'0 0.0
2014-Aug-14 07:33N 49°09' W 123°00'0 0.0
2014-Aug-14 06:33N 49°09' W 123°00'0 0.0
2014-Aug-14 05:33N 49°09' W 123°00'0 0.0
2014-Aug-14 04:33N 49°09' W 123°00'0 0.0
2014-Aug-14 03:33N 49°09' W 123°00'0 0.0
2014-Aug-14 02:33N 49°09' W 123°00'0 0.0
2014-Aug-14 01:33N 49°09' W 123°00'0 0.0
2014-Aug-14 00:30N 49°09' W 123°00'0 0.0
2014-Aug-13 23:30N 49°09' W 123°00'0 0.0
2014-Aug-13 22:30N 49°09' W 123°00'0 0.0
2014-Aug-13 21:33N 49°09' W 123°00'0 0.0
2014-Aug-13 20:30N 49°09' W 123°00'0 0.0
2014-Aug-13 19:29N 49°09' W 123°00'0 0.0
2014-Aug-13 18:27N 49°09' W 123°00'0 0.0
2014-Aug-13 17:32N 49°09' W 123°00'0 0.0
2014-Aug-13 16:32N 49°09' W 123°00'0 0.0
2014-Aug-13 15:22N 49°09' W 123°00'0 0.0
2014-Aug-13 14:31N 49°09' W 123°00'0 0.0
2014-Aug-13 13:31N 49°09' W 123°00'0 0.0
2014-Aug-13 12:31N 49°09' W 123°00'0 0.0
2014-Aug-13 11:31N 49°09' W 123°00'0 0.0
2014-Aug-13 10:22N 49°09' W 123°00'0 0.0
2014-Aug-13 09:29N 49°09' W 123°00'0 0.0
2014-Aug-13 08:28N 49°09' W 123°00'0 0.0
2014-Aug-13 07:22N 49°09' W 123°00'0 0.0
2014-Aug-13 06:31N 49°09' W 123°00'0 0.0
2014-Aug-13 05:31N 49°09' W 123°00'0 0.0
2014-Aug-13 04:31N 49°09' W 123°00'0 0.0
2014-Aug-13 03:28N 49°09' W 123°00'0 0.0
2014-Aug-13 02:31N 49°09' W 123°00'0 0.0
2014-Aug-13 01:28N 49°09' W 123°00'0 0.0
2014-Aug-13 00:31N 49°09' W 123°00'0 0.0
2014-Aug-12 23:28N 49°09' W 123°00'0 0.0
2014-Aug-12 22:28N 49°09' W 123°00'0 0.0
2014-Aug-12 21:10N 49°09' W 123°00'0 0.0
2014-Aug-12 20:28N 49°09' W 123°00'0 0.0
2014-Aug-12 19:31N 49°09' W 123°00'0 0.0
2014-Aug-12 18:28N 49°09' W 123°00'0 0.0
2014-Aug-12 17:28N 49°09' W 123°00'0 0.0
2014-Aug-12 16:34N 49°09' W 123°00'0 0.0
2014-Aug-12 15:33N 49°09' W 123°00'0 0.0
2014-Aug-12 14:33N 49°09' W 123°00'0 0.0
2014-Aug-12 13:24N 49°09' W 123°00'0 0.0
2014-Aug-12 12:33N 49°09' W 123°00'0 0.0
2014-Aug-12 11:33N 49°09' W 123°00'0 0.0
2014-Aug-12 10:30N 49°09' W 123°00'0 0.0
2014-Aug-12 09:33N 49°09' W 123°00'0 0.0
2014-Aug-12 08:33N 49°09' W 123°00'0 0.0
2014-Aug-12 07:30N 49°09' W 123°00'0 0.0
2014-Aug-12 06:33N 49°09' W 123°00'0 0.0
2014-Aug-12 05:33N 49°09' W 123°00'0 0.0
2014-Aug-12 04:33N 49°09' W 123°00'0 0.0
2014-Aug-12 03:27N 49°09' W 123°00'0 0.0
2014-Aug-12 02:33N 49°09' W 123°00'0 0.0
2014-Aug-12 01:33N 49°09' W 123°00'0 0.0
2014-Aug-12 00:21N 49°09' W 123°00'0 0.0
2014-Aug-11 23:30N 49°09' W 123°00'0 0.0
2014-Aug-11 21:27N 49°09' W 123°00'0 0.0
2014-Aug-11 20:33N 49°09' W 123°00'0 0.0
2014-Aug-11 19:27N 49°09' W 123°00'0 0.0
2014-Aug-11 18:09N 49°09' W 123°00'0 0.0
2014-Aug-11 17:33N 49°09' W 123°00'0 0.0
2014-Aug-11 16:33N 49°09' W 123°00'0 0.0
2014-Aug-11 15:33N 49°09' W 123°00'0 0.0
2014-Aug-11 14:33N 49°09' W 123°00'0 0.0
2014-Aug-11 13:33N 49°09' W 123°00'2 2.1
2014-Aug-11 12:33N 49°08' W 123°03'5 4.8
2014-Aug-11 11:33N 49°07' W 123°10'4 4.1
2014-Aug-11 10:33N 49°07' W 123°16'4 3.7
2014-Aug-11 09:33N 49°04' W 123°18'  

Dump ship's entire track history